sensor_id;sensor_type;location;lat;lon;timestamp;P1;durP1;ratioP1;P2;durP2;ratioP2
22937;SDS011;11634;42.734;23.298;2023-02-12T00:02:26;16.20;;;10.73;;
22937;SDS011;11634;42.734;23.298;2023-02-12T00:04:52;15.17;;;8.97;;
22937;SDS011;11634;42.734;23.298;2023-02-12T00:07:18;12.67;;;9.27;;
22937;SDS011;11634;42.734;23.298;2023-02-12T00:09:46;13.33;;;9.60;;
22937;SDS011;11634;42.734;23.298;2023-02-12T00:12:14;15.97;;;10.67;;
22937;SDS011;11634;42.734;23.298;2023-02-12T00:14:40;13.77;;;10.10;;
22937;SDS011;11634;42.734;23.298;2023-02-12T00:17:07;16.17;;;10.77;;
22937;SDS011;11634;42.734;23.298;2023-02-12T00:19:34;14.00;;;10.10;;
22937;SDS011;11634;42.734;23.298;2023-02-12T00:22:01;16.70;;;11.37;;
22937;SDS011;11634;42.734;23.298;2023-02-12T00:24:27;19.87;;;11.73;;
22937;SDS011;11634;42.734;23.298;2023-02-12T00:26:53;14.77;;;10.70;;
22937;SDS011;11634;42.734;23.298;2023-02-12T00:29:21;13.70;;;9.87;;
22937;SDS011;11634;42.734;23.298;2023-02-12T00:31:47;15.77;;;10.87;;
22937;SDS011;11634;42.734;23.298;2023-02-12T00:34:14;15.50;;;11.23;;
22937;SDS011;11634;42.734;23.298;2023-02-12T00:36:39;15.43;;;10.27;;
22937;SDS011;11634;42.734;23.298;2023-02-12T00:39:08;15.17;;;9.67;;
22937;SDS011;11634;42.734;23.298;2023-02-12T00:41:34;17.53;;;11.13;;
22937;SDS011;11634;42.734;23.298;2023-02-12T00:44:01;18.23;;;10.97;;
22937;SDS011;11634;42.734;23.298;2023-02-12T00:46:27;14.97;;;9.83;;
22937;SDS011;11634;42.734;23.298;2023-02-12T00:48:54;16.07;;;10.83;;
22937;SDS011;11634;42.734;23.298;2023-02-12T00:51:19;15.03;;;10.07;;
22937;SDS011;11634;42.734;23.298;2023-02-12T00:53:47;17.43;;;11.00;;
22937;SDS011;11634;42.734;23.298;2023-02-12T00:56:13;14.40;;;9.87;;
22937;SDS011;11634;42.734;23.298;2023-02-12T00:58:40;15.07;;;10.13;;
22937;SDS011;11634;42.734;23.298;2023-02-12T01:01:07;19.27;;;11.63;;
22937;SDS011;11634;42.734;23.298;2023-02-12T01:03:34;13.80;;;9.77;;
22937;SDS011;11634;42.734;23.298;2023-02-12T01:06:00;15.57;;;9.83;;
22937;SDS011;11634;42.734;23.298;2023-02-12T01:08:26;14.23;;;10.03;;
22937;SDS011;11634;42.734;23.298;2023-02-12T01:10:57;14.97;;;10.40;;
22937;SDS011;11634;42.734;23.298;2023-02-12T01:13:28;16.53;;;10.30;;
22937;SDS011;11634;42.734;23.298;2023-02-12T01:16:15;15.93;;;11.67;;
22937;SDS011;11634;42.734;23.298;2023-02-12T01:18:44;18.20;;;11.77;;
22937;SDS011;11634;42.734;23.298;2023-02-12T01:21:20;17.47;;;11.80;;
22937;SDS011;11634;42.734;23.298;2023-02-12T01:23:48;17.23;;;10.57;;
22937;SDS011;11634;42.734;23.298;2023-02-12T01:26:15;17.37;;;11.10;;
22937;SDS011;11634;42.734;23.298;2023-02-12T01:28:44;17.07;;;10.63;;
22937;SDS011;11634;42.734;23.298;2023-02-12T01:31:23;14.10;;;10.20;;
22937;SDS011;11634;42.734;23.298;2023-02-12T01:33:51;15.53;;;10.20;;
22937;SDS011;11634;42.734;23.298;2023-02-12T01:36:18;14.93;;;10.67;;
22937;SDS011;11634;42.734;23.298;2023-02-12T01:38:46;18.90;;;12.87;;
22937;SDS011;11634;42.734;23.298;2023-02-12T01:41:13;20.87;;;13.03;;
22937;SDS011;11634;42.734;23.298;2023-02-12T01:43:42;18.40;;;12.47;;
22937;SDS011;11634;42.734;23.298;2023-02-12T01:46:13;19.07;;;12.97;;
22937;SDS011;11634;42.734;23.298;2023-02-12T01:48:41;18.63;;;13.17;;
22937;SDS011;11634;42.734;23.298;2023-02-12T01:51:10;20.57;;;14.17;;
22937;SDS011;11634;42.734;23.298;2023-02-12T01:53:41;19.60;;;13.20;;
22937;SDS011;11634;42.734;23.298;2023-02-12T01:56:12;18.50;;;13.00;;
22937;SDS011;11634;42.734;23.298;2023-02-12T01:58:41;17.93;;;13.27;;
22937;SDS011;11634;42.734;23.298;2023-02-12T02:01:11;20.27;;;12.80;;
22937;SDS011;11634;42.734;23.298;2023-02-12T02:03:41;22.40;;;14.10;;
22937;SDS011;11634;42.734;23.298;2023-02-12T02:06:10;23.13;;;15.97;;
22937;SDS011;11634;42.734;23.298;2023-02-12T02:08:39;22.33;;;14.73;;
22937;SDS011;11634;42.734;23.298;2023-02-12T02:11:08;22.20;;;14.23;;
22937;SDS011;11634;42.734;23.298;2023-02-12T02:14:00;22.43;;;14.23;;
22937;SDS011;11634;42.734;23.298;2023-02-12T02:16:46;21.60;;;15.20;;
22937;SDS011;11634;42.734;23.298;2023-02-12T02:31:03;20.93;;;14.57;;
22937;SDS011;11634;42.734;23.298;2023-02-12T02:33:41;26.23;;;16.90;;
22937;SDS011;11634;42.734;23.298;2023-02-12T02:44:54;25.63;;;15.83;;
22937;SDS011;11634;42.734;23.298;2023-02-12T02:47:30;23.47;;;16.20;;
22937;SDS011;11634;42.734;23.298;2023-02-12T02:50:04;24.23;;;15.83;;
22937;SDS011;11634;42.734;23.298;2023-02-12T02:52:35;26.50;;;16.77;;
22937;SDS011;11634;42.734;23.298;2023-02-12T02:55:26;22.20;;;16.07;;
22937;SDS011;11634;42.734;23.298;2023-02-12T02:57:57;22.80;;;15.47;;
22937;SDS011;11634;42.734;23.298;2023-02-12T03:09:28;19.50;;;14.27;;
22937;SDS011;11634;42.734;23.298;2023-02-12T03:15:36;21.47;;;13.60;;
22937;SDS011;11634;42.734;23.298;2023-02-12T03:18:08;20.27;;;14.07;;
22937;SDS011;11634;42.734;23.298;2023-02-12T03:20:48;18.10;;;12.20;;
22937;SDS011;11634;42.734;23.298;2023-02-12T03:23:24;17.73;;;12.47;;
22937;SDS011;11634;42.734;23.298;2023-02-12T03:28:39;25.93;;;15.03;;
22937;SDS011;11634;42.734;23.298;2023-02-12T03:37:29;17.93;;;13.07;;
22937;SDS011;11634;42.734;23.298;2023-02-12T03:40:01;21.40;;;13.90;;
22937;SDS011;11634;42.734;23.298;2023-02-12T03:42:46;20.47;;;13.60;;
22937;SDS011;11634;42.734;23.298;2023-02-12T03:54:06;23.27;;;14.33;;
22937;SDS011;11634;42.734;23.298;2023-02-12T03:59:13;20.37;;;14.13;;
22937;SDS011;11634;42.734;23.298;2023-02-12T04:01:39;21.17;;;14.43;;
22937;SDS011;11634;42.734;23.298;2023-02-12T04:04:07;23.93;;;15.10;;
22937;SDS011;11634;42.734;23.298;2023-02-12T04:06:33;22.53;;;15.67;;
22937;SDS011;11634;42.734;23.298;2023-02-12T04:09:05;22.07;;;14.77;;
22937;SDS011;11634;42.734;23.298;2023-02-12T04:18:09;22.00;;;14.43;;
22937;SDS011;11634;42.734;23.298;2023-02-12T04:20:50;24.17;;;15.53;;
22937;SDS011;11634;42.734;23.298;2023-02-12T04:26:47;22.23;;;14.63;;
22937;SDS011;11634;42.734;23.298;2023-02-12T04:37:17;26.43;;;16.97;;
22937;SDS011;11634;42.734;23.298;2023-02-12T04:39:47;23.93;;;16.17;;
22937;SDS011;11634;42.734;23.298;2023-02-12T04:42:16;25.97;;;17.47;;
22937;SDS011;11634;42.734;23.298;2023-02-12T04:44:42;30.90;;;18.97;;
22937;SDS011;11634;42.734;23.298;2023-02-12T04:47:10;24.53;;;17.17;;
22937;SDS011;11634;42.734;23.298;2023-02-12T04:49:41;25.53;;;16.87;;
22937;SDS011;11634;42.734;23.298;2023-02-12T04:52:07;26.00;;;17.43;;
22937;SDS011;11634;42.734;23.298;2023-02-12T04:54:33;27.20;;;17.73;;
22937;SDS011;11634;42.734;23.298;2023-02-12T04:57:01;24.03;;;15.97;;
22937;SDS011;11634;42.734;23.298;2023-02-12T04:59:27;24.93;;;15.53;;
22937;SDS011;11634;42.734;23.298;2023-02-12T05:01:52;24.60;;;15.30;;
22937;SDS011;11634;42.734;23.298;2023-02-12T05:04:18;23.40;;;14.93;;
22937;SDS011;11634;42.734;23.298;2023-02-12T05:06:44;22.00;;;13.70;;
22937;SDS011;11634;42.734;23.298;2023-02-12T05:09:15;21.03;;;14.17;;
22937;SDS011;11634;42.734;23.298;2023-02-12T05:11:43;19.60;;;13.50;;
22937;SDS011;11634;42.734;23.298;2023-02-12T05:14:09;24.27;;;14.87;;
22937;SDS011;11634;42.734;23.298;2023-02-12T05:16:35;21.43;;;13.83;;
22937;SDS011;11634;42.734;23.298;2023-02-12T05:19:00;18.40;;;11.70;;
22937;SDS011;11634;42.734;23.298;2023-02-12T05:21:26;17.93;;;11.23;;
22937;SDS011;11634;42.734;23.298;2023-02-12T05:23:53;17.83;;;12.27;;
22937;SDS011;11634;42.734;23.298;2023-02-12T05:26:20;18.03;;;13.63;;
22937;SDS011;11634;42.734;23.298;2023-02-12T05:28:47;18.37;;;11.20;;
22937;SDS011;11634;42.734;23.298;2023-02-12T05:31:14;18.03;;;13.17;;
22937;SDS011;11634;42.734;23.298;2023-02-12T05:33:41;15.83;;;10.80;;
22937;SDS011;11634;42.734;23.298;2023-02-12T05:36:09;18.67;;;10.17;;
22937;SDS011;11634;42.734;23.298;2023-02-12T05:38:39;14.50;;;10.53;;
22937;SDS011;11634;42.734;23.298;2023-02-12T05:41:10;17.20;;;11.27;;
22937;SDS011;11634;42.734;23.298;2023-02-12T05:43:39;21.43;;;13.43;;
22937;SDS011;11634;42.734;23.298;2023-02-12T05:46:05;20.83;;;12.40;;
22937;SDS011;11634;42.734;23.298;2023-02-12T05:48:33;21.67;;;14.60;;
22937;SDS011;11634;42.734;23.298;2023-02-12T05:51:02;17.63;;;11.37;;
22937;SDS011;11634;42.734;23.298;2023-02-12T05:53:30;15.30;;;9.50;;
22937;SDS011;11634;42.734;23.298;2023-02-12T05:56:05;22.33;;;14.53;;
22937;SDS011;11634;42.734;23.298;2023-02-12T05:59:01;23.83;;;14.93;;
22937;SDS011;11634;42.734;23.298;2023-02-12T06:01:32;19.83;;;14.57;;
22937;SDS011;11634;42.734;23.298;2023-02-12T06:04:01;18.83;;;13.13;;
22937;SDS011;11634;42.734;23.298;2023-02-12T06:06:30;19.73;;;14.00;;
22937;SDS011;11634;42.734;23.298;2023-02-12T06:08:57;19.97;;;13.77;;
22937;SDS011;11634;42.734;23.298;2023-02-12T06:11:23;23.63;;;15.33;;
22937;SDS011;11634;42.734;23.298;2023-02-12T06:13:49;22.23;;;14.60;;
22937;SDS011;11634;42.734;23.298;2023-02-12T06:18:43;22.57;;;15.17;;
22937;SDS011;11634;42.734;23.298;2023-02-12T06:21:12;23.97;;;16.33;;
22937;SDS011;11634;42.734;23.298;2023-02-12T06:23:38;23.97;;;15.63;;
22937;SDS011;11634;42.734;23.298;2023-02-12T06:26:04;16.80;;;10.10;;
22937;SDS011;11634;42.734;23.298;2023-02-12T06:28:29;21.70;;;14.70;;
22937;SDS011;11634;42.734;23.298;2023-02-12T06:30:55;18.97;;;13.47;;
22937;SDS011;11634;42.734;23.298;2023-02-12T06:33:22;16.37;;;11.43;;
22937;SDS011;11634;42.734;23.298;2023-02-12T06:35:47;19.33;;;13.27;;
22937;SDS011;11634;42.734;23.298;2023-02-12T06:38:13;22.10;;;13.07;;
22937;SDS011;11634;42.734;23.298;2023-02-12T06:40:39;17.23;;;10.97;;
22937;SDS011;11634;42.734;23.298;2023-02-12T06:43:04;22.27;;;15.00;;
22937;SDS011;11634;42.734;23.298;2023-02-12T06:45:30;18.53;;;13.20;;
22937;SDS011;11634;42.734;23.298;2023-02-12T06:47:56;24.07;;;16.07;;
22937;SDS011;11634;42.734;23.298;2023-02-12T06:50:22;18.23;;;13.17;;
22937;SDS011;11634;42.734;23.298;2023-02-12T06:52:50;22.03;;;15.13;;
22937;SDS011;11634;42.734;23.298;2023-02-12T06:55:15;28.03;;;19.83;;
22937;SDS011;11634;42.734;23.298;2023-02-12T06:57:41;23.37;;;16.67;;
22937;SDS011;11634;42.734;23.298;2023-02-12T07:00:08;24.27;;;16.53;;
22937;SDS011;11634;42.734;23.298;2023-02-12T07:02:34;22.53;;;14.87;;
22937;SDS011;11634;42.734;23.298;2023-02-12T07:05:00;18.87;;;13.03;;
22937;SDS011;11634;42.734;23.298;2023-02-12T07:07:26;22.33;;;14.67;;
22937;SDS011;11634;42.734;23.298;2023-02-12T07:09:53;24.77;;;16.07;;
22937;SDS011;11634;42.734;23.298;2023-02-12T07:12:19;19.03;;;13.67;;
22937;SDS011;11634;42.734;23.298;2023-02-12T07:14:46;18.77;;;13.13;;
22937;SDS011;11634;42.734;23.298;2023-02-12T07:17:12;18.30;;;12.20;;
22937;SDS011;11634;42.734;23.298;2023-02-12T07:19:40;17.90;;;13.07;;
22937;SDS011;11634;42.734;23.298;2023-02-12T07:22:05;22.67;;;12.50;;
22937;SDS011;11634;42.734;23.298;2023-02-12T07:24:31;20.13;;;13.20;;
22937;SDS011;11634;42.734;23.298;2023-02-12T07:26:56;18.83;;;12.97;;
22937;SDS011;11634;42.734;23.298;2023-02-12T07:29:22;17.90;;;11.80;;
22937;SDS011;11634;42.734;23.298;2023-02-12T07:31:52;18.20;;;10.63;;
22937;SDS011;11634;42.734;23.298;2023-02-12T07:34:17;19.23;;;14.20;;
22937;SDS011;11634;42.734;23.298;2023-02-12T07:36:43;18.73;;;13.97;;
22937;SDS011;11634;42.734;23.298;2023-02-12T07:39:10;20.80;;;13.63;;
22937;SDS011;11634;42.734;23.298;2023-02-12T07:41:38;23.00;;;15.53;;
22937;SDS011;11634;42.734;23.298;2023-02-12T07:44:07;24.63;;;15.57;;
22937;SDS011;11634;42.734;23.298;2023-02-12T07:46:38;24.03;;;16.30;;
22937;SDS011;11634;42.734;23.298;2023-02-12T07:49:07;23.10;;;16.17;;
22937;SDS011;11634;42.734;23.298;2023-02-12T07:51:42;24.10;;;15.40;;
22937;SDS011;11634;42.734;23.298;2023-02-12T07:54:10;23.77;;;16.77;;
22937;SDS011;11634;42.734;23.298;2023-02-12T07:56:36;26.93;;;17.33;;
22937;SDS011;11634;42.734;23.298;2023-02-12T07:59:07;26.57;;;17.43;;
22937;SDS011;11634;42.734;23.298;2023-02-12T08:01:38;23.97;;;17.40;;
22937;SDS011;11634;42.734;23.298;2023-02-12T08:04:07;23.47;;;16.70;;
22937;SDS011;11634;42.734;23.298;2023-02-12T08:06:38;27.87;;;18.70;;
22937;SDS011;11634;42.734;23.298;2023-02-12T08:09:07;21.43;;;14.63;;
22937;SDS011;11634;42.734;23.298;2023-02-12T08:11:34;24.33;;;17.33;;
22937;SDS011;11634;42.734;23.298;2023-02-12T08:14:01;19.93;;;14.43;;
22937;SDS011;11634;42.734;23.298;2023-02-12T08:16:28;24.63;;;17.07;;
22937;SDS011;11634;42.734;23.298;2023-02-12T08:18:56;25.00;;;16.80;;
22937;SDS011;11634;42.734;23.298;2023-02-12T08:21:23;23.23;;;16.80;;
22937;SDS011;11634;42.734;23.298;2023-02-12T08:23:55;25.00;;;18.70;;
22937;SDS011;11634;42.734;23.298;2023-02-12T08:26:24;25.93;;;17.40;;
22937;SDS011;11634;42.734;23.298;2023-02-12T08:28:53;28.13;;;19.03;;
22937;SDS011;11634;42.734;23.298;2023-02-12T08:31:28;25.47;;;17.47;;
22937;SDS011;11634;42.734;23.298;2023-02-12T08:33:56;24.30;;;17.60;;
22937;SDS011;11634;42.734;23.298;2023-02-12T08:36:26;29.10;;;20.20;;
22937;SDS011;11634;42.734;23.298;2023-02-12T08:38:57;23.73;;;16.07;;
22937;SDS011;11634;42.734;23.298;2023-02-12T08:41:26;26.63;;;18.53;;
22937;SDS011;11634;42.734;23.298;2023-02-12T08:43:56;29.53;;;18.67;;
22937;SDS011;11634;42.734;23.298;2023-02-12T08:46:25;29.90;;;19.03;;
22937;SDS011;11634;42.734;23.298;2023-02-12T08:49:17;28.33;;;19.90;;
22937;SDS011;11634;42.734;23.298;2023-02-12T08:51:47;27.47;;;17.60;;
22937;SDS011;11634;42.734;23.298;2023-02-12T08:54:16;27.30;;;17.87;;
22937;SDS011;11634;42.734;23.298;2023-02-12T08:56:45;26.37;;;17.60;;
22937;SDS011;11634;42.734;23.298;2023-02-12T08:59:12;23.00;;;17.03;;
22937;SDS011;11634;42.734;23.298;2023-02-12T09:01:40;22.43;;;16.03;;
22937;SDS011;11634;42.734;23.298;2023-02-12T09:04:20;25.43;;;18.30;;
22937;SDS011;11634;42.734;23.298;2023-02-12T09:06:47;26.83;;;18.20;;
22937;SDS011;11634;42.734;23.298;2023-02-12T09:09:14;24.97;;;18.63;;
22937;SDS011;11634;42.734;23.298;2023-02-12T09:11:41;31.30;;;22.53;;
22937;SDS011;11634;42.734;23.298;2023-02-12T09:14:10;30.93;;;21.27;;
22937;SDS011;11634;42.734;23.298;2023-02-12T09:16:38;34.93;;;22.50;;
22937;SDS011;11634;42.734;23.298;2023-02-12T09:19:05;25.77;;;17.67;;
22937;SDS011;11634;42.734;23.298;2023-02-12T09:21:32;28.40;;;19.07;;
22937;SDS011;11634;42.734;23.298;2023-02-12T09:23:57;21.13;;;15.70;;
22937;SDS011;11634;42.734;23.298;2023-02-12T09:26:24;24.00;;;18.17;;
22937;SDS011;11634;42.734;23.298;2023-02-12T09:28:50;25.57;;;18.10;;
22937;SDS011;11634;42.734;23.298;2023-02-12T09:31:18;26.07;;;17.67;;
22937;SDS011;11634;42.734;23.298;2023-02-12T09:33:56;26.43;;;16.90;;
22937;SDS011;11634;42.734;23.298;2023-02-12T09:36:23;30.07;;;19.97;;
22937;SDS011;11634;42.734;23.298;2023-02-12T09:38:49;28.90;;;18.73;;
22937;SDS011;11634;42.734;23.298;2023-02-12T09:44:39;25.60;;;18.13;;
22937;SDS011;11634;42.734;23.298;2023-02-12T09:52:58;25.17;;;17.90;;
22937;SDS011;11634;42.734;23.298;2023-02-12T09:55:27;24.13;;;15.90;;
22937;SDS011;11634;42.734;23.298;2023-02-12T09:57:55;25.03;;;17.43;;
22937;SDS011;11634;42.734;23.298;2023-02-12T10:00:26;30.67;;;19.93;;
22937;SDS011;11634;42.734;23.298;2023-02-12T10:02:56;28.57;;;19.47;;
22937;SDS011;11634;42.734;23.298;2023-02-12T10:05:27;32.33;;;21.90;;
22937;SDS011;11634;42.734;23.298;2023-02-12T10:27:14;34.70;;;22.23;;
22937;SDS011;11634;42.734;23.298;2023-02-12T10:29:45;34.57;;;22.83;;
22937;SDS011;11634;42.734;23.298;2023-02-12T10:32:17;33.57;;;22.53;;
22937;SDS011;11634;42.734;23.298;2023-02-12T10:34:43;27.30;;;19.17;;
22937;SDS011;11634;42.734;23.298;2023-02-12T10:40:05;28.07;;;18.87;;
22937;SDS011;11634;42.734;23.298;2023-02-12T10:42:42;33.43;;;22.13;;
22937;SDS011;11634;42.734;23.298;2023-02-12T10:45:13;33.97;;;22.80;;
22937;SDS011;11634;42.734;23.298;2023-02-12T10:47:40;30.17;;;19.77;;
22937;SDS011;11634;42.734;23.298;2023-02-12T10:50:14;27.40;;;18.83;;
22937;SDS011;11634;42.734;23.298;2023-02-12T10:52:46;32.97;;;22.67;;
22937;SDS011;11634;42.734;23.298;2023-02-12T10:55:23;34.00;;;23.20;;
22937;SDS011;11634;42.734;23.298;2023-02-12T10:57:52;33.33;;;22.70;;
22937;SDS011;11634;42.734;23.298;2023-02-12T11:00:36;37.33;;;26.30;;
22937;SDS011;11634;42.734;23.298;2023-02-12T11:05:29;34.77;;;23.43;;
22937;SDS011;11634;42.734;23.298;2023-02-12T11:07:57;27.73;;;20.67;;
22937;SDS011;11634;42.734;23.298;2023-02-12T11:10:35;34.10;;;23.00;;
22937;SDS011;11634;42.734;23.298;2023-02-12T11:13:03;31.63;;;22.57;;
22937;SDS011;11634;42.734;23.298;2023-02-12T11:15:37;27.67;;;18.90;;
22937;SDS011;11634;42.734;23.298;2023-02-12T11:18:19;24.83;;;17.37;;
22937;SDS011;11634;42.734;23.298;2023-02-12T11:20:56;26.13;;;18.85;;
22937;SDS011;11634;42.734;23.298;2023-02-12T11:23:29;31.08;;;18.20;;
22937;SDS011;11634;42.734;23.298;2023-02-12T11:26:06;29.63;;;18.30;;
22937;SDS011;11634;42.734;23.298;2023-02-12T11:31:58;26.70;;;20.25;;
22937;SDS011;11634;42.734;23.298;2023-02-12T11:34:26;28.87;;;21.07;;
22937;SDS011;11634;42.734;23.298;2023-02-12T11:36:54;20.73;;;16.02;;
22937;SDS011;11634;42.734;23.298;2023-02-12T11:39:27;25.87;;;18.63;;
22937;SDS011;11634;42.734;23.298;2023-02-12T11:42:00;27.50;;;18.25;;
22937;SDS011;11634;42.734;23.298;2023-02-12T11:44:37;30.13;;;19.88;;
22937;SDS011;11634;42.734;23.298;2023-02-12T11:47:05;32.50;;;21.52;;
22937;SDS011;11634;42.734;23.298;2023-02-12T11:50:14;29.10;;;18.75;;
22937;SDS011;11634;42.734;23.298;2023-02-12T11:52:39;25.90;;;18.55;;
22937;SDS011;11634;42.734;23.298;2023-02-12T11:55:06;27.70;;;20.73;;
22937;SDS011;11634;42.734;23.298;2023-02-12T11:57:48;32.63;;;21.83;;
22937;SDS011;11634;42.734;23.298;2023-02-12T12:03:44;30.52;;;20.25;;
22937;SDS011;11634;42.734;23.298;2023-02-12T12:06:25;29.95;;;22.08;;
22937;SDS011;11634;42.734;23.298;2023-02-12T12:14:02;28.92;;;20.52;;
22937;SDS011;11634;42.734;23.298;2023-02-12T12:16:49;30.15;;;21.48;;
22937;SDS011;11634;42.734;23.298;2023-02-12T12:20:38;28.35;;;20.92;;
22937;SDS011;11634;42.734;23.298;2023-02-12T12:25:25;27.05;;;19.48;;
22937;SDS011;11634;42.734;23.298;2023-02-12T12:28:03;29.23;;;21.00;;
22937;SDS011;11634;42.734;23.298;2023-02-12T12:47:45;28.92;;;20.02;;
22937;SDS011;11634;42.734;23.298;2023-02-12T13:04:21;25.00;;;19.58;;
22937;SDS011;11634;42.734;23.298;2023-02-12T13:10:17;28.45;;;21.88;;
22937;SDS011;11634;42.734;23.298;2023-02-12T13:13:08;27.45;;;20.75;;
22937;SDS011;11634;42.734;23.298;2023-02-12T13:15:55;30.05;;;22.40;;
22937;SDS011;11634;42.734;23.298;2023-02-12T13:21:17;29.60;;;21.42;;
22937;SDS011;11634;42.734;23.298;2023-02-12T13:23:55;31.17;;;23.10;;
22937;SDS011;11634;42.734;23.298;2023-02-12T13:26:31;27.63;;;19.80;;
22937;SDS011;11634;42.734;23.298;2023-02-12T13:31:44;26.42;;;17.92;;
22937;SDS011;11634;42.734;23.298;2023-02-12T13:34:14;29.05;;;20.17;;
22937;SDS011;11634;42.734;23.298;2023-02-12T13:36:43;28.40;;;19.77;;
22937;SDS011;11634;42.734;23.298;2023-02-12T13:39:28;25.08;;;19.85;;
22937;SDS011;11634;42.734;23.298;2023-02-12T13:49:53;24.37;;;17.37;;
22937;SDS011;11634;42.734;23.298;2023-02-12T13:52:31;29.30;;;20.53;;
22937;SDS011;11634;42.734;23.298;2023-02-12T14:01:11;28.83;;;20.38;;
22937;SDS011;11634;42.734;23.298;2023-02-12T14:04:12;23.93;;;18.00;;
22937;SDS011;11634;42.734;23.298;2023-02-12T14:07:07;29.30;;;20.77;;
22937;SDS011;11634;42.734;23.298;2023-02-12T14:09:46;31.67;;;21.67;;
22937;SDS011;11634;42.734;23.298;2023-02-12T14:12:31;39.27;;;24.00;;
22937;SDS011;11634;42.734;23.298;2023-02-12T14:26:02;31.00;;;22.90;;
22937;SDS011;11634;42.734;23.298;2023-02-12T14:28:33;37.15;;;26.35;;
22937;SDS011;11634;42.734;23.298;2023-02-12T14:31:28;33.87;;;22.83;;
22937;SDS011;11634;42.734;23.298;2023-02-12T14:38:56;33.27;;;23.43;;
22937;SDS011;11634;42.734;23.298;2023-02-12T14:41:27;36.57;;;25.37;;
22937;SDS011;11634;42.734;23.298;2023-02-12T14:46:48;31.97;;;21.73;;
22937;SDS011;11634;42.734;23.298;2023-02-12T14:55:04;33.63;;;23.77;;
22937;SDS011;11634;42.734;23.298;2023-02-12T14:58:13;32.13;;;23.97;;
22937;SDS011;11634;42.734;23.298;2023-02-12T15:00:44;39.53;;;26.07;;
22937;SDS011;11634;42.734;23.298;2023-02-12T15:05:40;36.33;;;27.40;;
22937;SDS011;11634;42.734;23.298;2023-02-12T15:08:35;38.60;;;27.77;;
22937;SDS011;11634;42.734;23.298;2023-02-12T15:11:16;40.53;;;27.97;;
22937;SDS011;11634;42.734;23.298;2023-02-12T15:13:50;38.17;;;25.77;;
22937;SDS011;11634;42.734;23.298;2023-02-12T15:22:19;41.53;;;29.67;;
22937;SDS011;11634;42.734;23.298;2023-02-12T15:28:35;42.77;;;30.43;;
22937;SDS011;11634;42.734;23.298;2023-02-12T15:30:48;39.50;;;27.47;;
22937;SDS011;11634;42.734;23.298;2023-02-12T15:33:30;41.90;;;28.17;;
22937;SDS011;11634;42.734;23.298;2023-02-12T15:35:59;40.50;;;29.17;;
22937;SDS011;11634;42.734;23.298;2023-02-12T15:38:32;41.80;;;28.47;;
22937;SDS011;11634;42.734;23.298;2023-02-12T15:41:01;41.20;;;29.93;;
22937;SDS011;11634;42.734;23.298;2023-02-12T15:43:30;38.00;;;26.23;;
22937;SDS011;11634;42.734;23.298;2023-02-12T15:46:02;43.53;;;30.53;;
22937;SDS011;11634;42.734;23.298;2023-02-12T15:48:31;42.13;;;30.37;;
22937;SDS011;11634;42.734;23.298;2023-02-12T15:53:55;38.60;;;27.10;;
22937;SDS011;11634;42.734;23.298;2023-02-12T15:56:25;47.40;;;33.00;;
22937;SDS011;11634;42.734;23.298;2023-02-12T15:58:52;49.50;;;33.63;;
22937;SDS011;11634;42.734;23.298;2023-02-12T16:01:22;49.40;;;32.00;;
22937;SDS011;11634;42.734;23.298;2023-02-12T16:03:50;51.50;;;33.57;;
22937;SDS011;11634;42.734;23.298;2023-02-12T16:06:19;53.77;;;34.37;;
22937;SDS011;11634;42.734;23.298;2023-02-12T16:08:51;60.97;;;35.67;;
22937;SDS011;11634;42.734;23.298;2023-02-12T16:11:20;47.43;;;33.07;;
22937;SDS011;11634;42.734;23.298;2023-02-12T16:13:50;52.83;;;36.17;;
22937;SDS011;11634;42.734;23.298;2023-02-12T16:16:24;46.53;;;31.70;;
22937;SDS011;11634;42.734;23.298;2023-02-12T16:21:57;52.47;;;34.63;;
22937;SDS011;11634;42.734;23.298;2023-02-12T16:26:54;49.10;;;33.10;;
22937;SDS011;11634;42.734;23.298;2023-02-12T16:29:21;50.27;;;35.90;;
22937;SDS011;11634;42.734;23.298;2023-02-12T16:31:54;52.93;;;34.43;;
22937;SDS011;11634;42.734;23.298;2023-02-12T16:34:29;50.53;;;34.53;;
22937;SDS011;11634;42.734;23.298;2023-02-12T16:36:57;50.37;;;35.57;;
22937;SDS011;11634;42.734;23.298;2023-02-12T16:48:06;52.53;;;34.63;;
22937;SDS011;11634;42.734;23.298;2023-02-12T16:50:37;56.73;;;37.20;;
22937;SDS011;11634;42.734;23.298;2023-02-12T16:55:50;81.27;;;49.60;;
22937;SDS011;11634;42.734;23.298;2023-02-12T16:58:15;65.67;;;41.53;;
22937;SDS011;11634;42.734;23.298;2023-02-12T17:00:41;67.33;;;43.10;;
22937;SDS011;11634;42.734;23.298;2023-02-12T17:03:13;61.47;;;42.50;;
22937;SDS011;11634;42.734;23.298;2023-02-12T17:05:41;63.77;;;41.60;;
22937;SDS011;11634;42.734;23.298;2023-02-12T17:08:13;72.40;;;46.17;;
22937;SDS011;11634;42.734;23.298;2023-02-12T17:10:44;70.80;;;45.37;;
22937;SDS011;11634;42.734;23.298;2023-02-12T17:13:12;70.73;;;41.13;;
22937;SDS011;11634;42.734;23.298;2023-02-12T17:15:43;63.10;;;40.57;;
22937;SDS011;11634;42.734;23.298;2023-02-12T17:18:12;56.63;;;36.53;;
22937;SDS011;11634;42.734;23.298;2023-02-12T17:20:38;53.73;;;36.00;;
22937;SDS011;11634;42.734;23.298;2023-02-12T17:23:07;66.00;;;38.40;;
22937;SDS011;11634;42.734;23.298;2023-02-12T17:25:35;55.33;;;36.70;;
22937;SDS011;11634;42.734;23.298;2023-02-12T17:28:00;53.90;;;37.00;;
22937;SDS011;11634;42.734;23.298;2023-02-12T17:30:26;59.17;;;39.63;;
22937;SDS011;11634;42.734;23.298;2023-02-12T17:32:59;60.20;;;37.37;;
22937;SDS011;11634;42.734;23.298;2023-02-12T17:35:24;53.40;;;35.13;;
22937;SDS011;11634;42.734;23.298;2023-02-12T17:37:50;53.70;;;35.43;;
22937;SDS011;11634;42.734;23.298;2023-02-12T17:40:19;54.23;;;35.40;;
22937;SDS011;11634;42.734;23.298;2023-02-12T17:42:45;59.50;;;36.87;;
22937;SDS011;11634;42.734;23.298;2023-02-12T17:45:10;51.43;;;36.33;;
22937;SDS011;11634;42.734;23.298;2023-02-12T17:47:37;56.40;;;37.77;;
22937;SDS011;11634;42.734;23.298;2023-02-12T17:50:07;63.03;;;40.33;;
22937;SDS011;11634;42.734;23.298;2023-02-12T17:52:39;64.10;;;42.60;;
22937;SDS011;11634;42.734;23.298;2023-02-12T17:55:06;70.47;;;46.50;;
22937;SDS011;11634;42.734;23.298;2023-02-12T17:57:36;71.60;;;47.33;;
22937;SDS011;11634;42.734;23.298;2023-02-12T18:00:03;66.00;;;44.57;;
22937;SDS011;11634;42.734;23.298;2023-02-12T18:02:35;75.80;;;49.27;;
22937;SDS011;11634;42.734;23.298;2023-02-12T18:05:03;80.17;;;52.27;;
22937;SDS011;11634;42.734;23.298;2023-02-12T18:07:32;66.83;;;46.57;;
22937;SDS011;11634;42.734;23.298;2023-02-12T18:09:59;78.57;;;48.93;;
22937;SDS011;11634;42.734;23.298;2023-02-12T18:12:24;62.80;;;43.17;;
22937;SDS011;11634;42.734;23.298;2023-02-12T18:14:54;65.57;;;44.27;;
22937;SDS011;11634;42.734;23.298;2023-02-12T18:17:22;63.83;;;41.83;;
22937;SDS011;11634;42.734;23.298;2023-02-12T18:19:48;67.17;;;42.27;;
22937;SDS011;11634;42.734;23.298;2023-02-12T18:22:16;63.20;;;45.77;;